| time (UTC) | temp F | wind direction | speed knots | gust knots | rain 1hr in | rain 24hr in | rain mn in | humidity % | barometer mb |
| 20260509021522 | 57 | 224 | 0.0 | 0.0 | 0.00 | 0.00 | 0.00 | 82 | 1016.3 |
| 20260509020026 | 58 | 224 | 0.0 | 0.0 | 0.00 | 0.00 | 0.00 | 82 | 1016.6 |
| 20260509014529 | 58 | 224 | 0.0 | 0.0 | 0.00 | 0.00 | 0.00 | 81 | 1016.3 |
| 20260509013026 | 59 | 224 | 0.0 | 0.0 | 0.00 | 0.00 | 0.00 | 79 | 1016.0 |
| 20260509011521 | 59 | 224 | 0.0 | 0.0 | 0.00 | 0.00 | 0.00 | 77 | 1016.0 |
| 20260509010024 | 60 | 224 | 0.0 | 0.0 | 0.00 | 0.00 | 0.00 | 74 | 1015.9 |
| 20260509004534 | 61 | 224 | 0.0 | 0.0 | 0.00 | 0.00 | 0.00 | 73 | 1015.8 |
| 20260509003009 | 62 | 224 | 0.0 | 0.0 | 0.00 | 0.00 | 0.00 | 71 | 1015.8 |
| 20260509001504 | 62 | 217 | 0.0 | 0.0 | 0.00 | 0.00 | 0.00 | 69 | 1015.8 |
| 20260509000005 | 63 | 216 | 0.0 | 0.0 | 0.00 | 0.00 | 0.00 | 68 | 1015.7 |
| 20260508234503 | 64 | 169 | 0.0 | 2.6 | 0.00 | 0.00 | 0.00 | 66 | 1015.6 |
| 20260508233008 | 64 | 184 | 0.9 | 2.6 | 0.00 | 0.00 | 0.00 | 65 | 1015.6 |
| 20260508231510 | 65 | 204 | 0.0 | 0.0 | 0.00 | 0.00 | 0.00 | 64 | 1015.8 |
| 20260508230017 | 66 | 207 | 0.0 | 0.0 | 0.00 | 0.00 | 0.00 | 62 | 1015.5 |
| 20260508224504 | 66 | 174 | 0.0 | 0.0 | 0.00 | 0.00 | 0.00 | 58 | 1015.5 |
| 20260508223002 | 67 | 229 | 0.9 | 1.7 | 0.00 | 0.00 | 0.00 | 56 | 1015.5 |
| 20260508221508 | 67 | 249 | 0.9 | 3.5 | 0.00 | 0.00 | 0.00 | 55 | 1015.5 |
| 20260508220012 | 67 | 196 | 0.9 | 3.5 | 0.00 | 0.00 | 0.00 | 55 | 1015.5 |
| 20260508214518 | 68 | 190 | 0.0 | 2.6 | 0.00 | 0.00 | 0.00 | 54 | 1015.5 |
| 20260508213013 | 68 | 223 | 1.7 | 4.3 | 0.00 | 0.00 | 0.00 | 52 | 1015.6 |
| 20260508211506 | 69 | 263 | 2.6 | 6.1 | 0.00 | 0.00 | 0.00 | 53 | 1015.7 |
| 20260508210009 | 69 | 194 | 1.7 | 4.3 | 0.00 | 0.00 | 0.00 | 51 | 1015.6 |
| 20260508204513 | 69 | 162 | 2.6 | 6.1 | 0.00 | 0.00 | 0.00 | 51 | 1015.7 |
| 20260508203018 | 70 | 127 | 1.7 | 6.1 | 0.00 | 0.00 | 0.00 | 50 | 1015.8 |
| 20260508201503 | 70 | 282 | 1.7 | 7.0 | 0.00 | 0.00 | 0.00 | 49 | 1015.8 |
| 20260508200015 | 70 | 139 | 3.5 | 7.8 | 0.00 | 0.00 | 0.00 | 47 | 1016.1 |
| 20260508194508 | 70 | 214 | 1.7 | 7.0 | 0.00 | 0.00 | 0.00 | 47 | 1016.5 |
| 20260508193017 | 70 | 234 | 1.7 | 7.8 | 0.00 | 0.00 | 0.00 | 47 | 1016.7 |
| 20260508191520 | 69 | 281 | 1.7 | 5.2 | 0.00 | 0.00 | 0.00 | 49 | 1017.0 |
| 20260508190006 | 70 | 205 | 3.5 | 6.1 | 0.00 | 0.00 | 0.00 | 47 | 1017.1 |
| 20260508184508 | 70 | 235 | 3.5 | 6.1 | 0.00 | 0.00 | 0.00 | 50 | 1017.3 |
| 20260508183012 | 69 | 156 | 1.7 | 6.1 | 0.00 | 0.00 | 0.00 | 48 | 1017.5 |
| 20260508181525 | 69 | 181 | 1.7 | 7.8 | 0.00 | 0.00 | 0.00 | 48 | 1017.6 |
| 20260508180021 | 69 | 76 | 1.7 | 6.1 | 0.00 | 0.00 | 0.00 | 51 | 1017.8 |
| 20260508174505 | 67 | 126 | 1.7 | 5.2 | 0.00 | 0.00 | 0.00 | 51 | 1018.0 |
| 20260508173015 | 67 | 230 | 1.7 | 7.8 | 0.00 | 0.00 | 0.00 | 51 | 1018.1 |
| 20260508171522 | 69 | 225 | 3.5 | 6.1 | 0.00 | 0.00 | 0.00 | 48 | 1018.2 |
| 20260508170016 | 69 | 185 | 2.6 | 6.1 | 0.00 | 0.00 | 0.00 | 49 | 1018.6 |
| 20260508164523 | 70 | 135 | 2.6 | 5.2 | 0.00 | 0.00 | 0.00 | 52 | 1018.8 |
| 20260508163023 | 68 | 232 | 3.5 | 7.8 | 0.00 | 0.00 | 0.00 | 47 | 1019.1 |
| 20260508161511 | 68 | 275 | 1.7 | 3.5 | 0.00 | 0.00 | 0.00 | 49 | 1019.2 |
| 20260508160021 | 66 | 217 | 0.9 | 5.2 | 0.00 | 0.00 | 0.00 | 55 | 1019.3 |
| 20260508154519 | 67 | 162 | 3.5 | 7.8 | 0.00 | 0.00 | 0.00 | 52 | 1019.6 |
| 20260508153032 | 67 | 278 | 0.9 | 2.6 | 0.00 | 0.00 | 0.00 | 49 | 1019.7 |
| 20260508151524 | 67 | 84 | 1.7 | 3.5 | 0.00 | 0.00 | 0.00 | 51 | 1019.8 |
| 20260508150009 | 67 | 68 | 0.9 | 4.3 | 0.00 | 0.00 | 0.00 | 50 | 1019.8 |
| 20260508144515 | 65 | 316 | 2.6 | 5.2 | 0.00 | 0.00 | 0.00 | 54 | 1019.7 |
| 20260508143022 | 65 | 203 | 1.7 | 5.2 | 0.00 | 0.00 | 0.00 | 56 | 1019.6 |
| 20260508141524 | 64 | 333 | 1.7 | 5.2 | 0.00 | 0.00 | 0.00 | 56 | 1019.8 |
| 20260508140028 | 63 | 88 | 1.7 | 4.3 | 0.00 | 0.00 | 0.00 | 58 | 1020.1 |
| 20260508134514 | 62 | 84 | 0.9 | 4.3 | 0.00 | 0.00 | 0.00 | 65 | 1020.1 |
| 20260508133015 | 61 | 110 | 0.9 | 4.3 | 0.00 | 0.02 | 0.00 | 65 | 1020.1 |
| 20260508131520 | 61 | 86 | 0.0 | 2.6 | 0.00 | 0.04 | 0.00 | 65 | 1020.0 |
| 20260508130026 | 59 | 83 | 0.0 | 1.7 | 0.00 | 0.10 | 0.00 | 69 | 1019.8 |
| 20260508124524 | 57 | 360 | 0.9 | 2.6 | 0.00 | 0.13 | 0.00 | 73 | 1019.4 |
| 20260508123013 | 55 | 54 | 0.0 | 2.6 | 0.00 | 0.14 | 0.00 | 77 | 1019.3 |
| 20260508121516 | 54 | 43 | 0.9 | 3.5 | 0.00 | 0.14 | 0.00 | 80 | 1019.2 |
| 20260508120022 | 52 | 32 | 0.0 | 3.5 | 0.00 | 0.14 | 0.00 | 85 | 1018.9 |
| 20260508114525 | 50 | 35 | 0.0 | 1.7 | 0.00 | 0.14 | 0.00 | 95 | 1018.7 |
| 20260508113028 | 48 | 38 | 0.0 | 0.0 | 0.00 | 0.17 | 0.00 | 96 | 1018.6 |
| 20260508111512 | 48 | 60 | 0.0 | 0.0 | 0.00 | 0.24 | 0.00 | 96 | 1018.2 |
| 20260508110017 | 46 | 60 | 0.0 | 0.0 | 0.00 | 0.34 | 0.00 | 96 | 1018.0 |
| 20260508104522 | 46 | 60 | 0.0 | 0.0 | 0.00 | 0.48 | 0.00 | 96 | 1017.6 |
| 20260508103024 | 46 | 60 | 0.0 | 0.0 | 0.00 | 0.48 | 0.00 | 95 | 1017.4 |
| 20260508101528 | 46 | 60 | 0.0 | 0.0 | 0.00 | 0.49 | 0.00 | 95 | 1017.2 |
| 20260508100012 | 47 | 60 | 0.0 | 0.0 | 0.00 | 0.52 | 0.00 | 95 | 1017.1 |
| 20260508094521 | 47 | 60 | 0.0 | 0.0 | 0.00 | 0.66 | 0.00 | 95 | 1017.0 |
| 20260508093025 | 47 | 60 | 0.0 | 0.0 | 0.00 | 0.66 | 0.00 | 95 | 1016.8 |
| 20260508091529 | 48 | 60 | 0.0 | 0.0 | 0.00 | 0.66 | 0.00 | 95 | 1016.8 |
| 20260508090009 | 48 | 60 | 0.0 | 0.0 | 0.00 | 0.66 | 0.00 | 94 | 1016.7 |
| 20260508084512 | 48 | 60 | 0.0 | 0.0 | 0.00 | 0.67 | 0.00 | 95 | 1016.6 |
| 20260508083021 | 48 | 60 | 0.0 | 0.0 | 0.00 | 0.68 | 0.00 | 94 | 1016.6 |
| 20260508081529 | 49 | 60 | 0.0 | 0.0 | 0.00 | 0.74 | 0.00 | 95 | 1016.4 |
| 20260508080026 | 49 | 60 | 0.0 | 0.0 | 0.00 | 0.83 | 0.00 | 95 | 1016.3 |
| 20260508074512 | 49 | 60 | 0.0 | 0.0 | 0.00 | 0.89 | 0.00 | 95 | 1016.5 |
| 20260508073016 | 49 | 60 | 0.0 | 0.0 | 0.00 | 1.00 | 0.00 | 94 | 1016.3 |
| 20260508071527 | 49 | 60 | 0.0 | 0.0 | 0.00 | 1.12 | 0.00 | 94 | 1016.2 |
| 20260508070022 | 49 | 60 | 0.0 | 0.0 | 0.00 | 1.15 | 0.00 | 94 | 1016.2 |
| 20260508064527 | 49 | 60 | 0.0 | 0.0 | 0.00 | 1.21 | 0.00 | 94 | 1015.9 |
| 20260508063009 | 50 | 60 | 0.0 | 0.0 | 0.00 | 1.33 | 0.00 | 94 | 1015.8 |
| 20260508061521 | 49 | 60 | 0.0 | 0.0 | 0.00 | 1.41 | 0.00 | 93 | 1016.0 |
| 20260508060021 | 50 | 60 | 0.0 | 0.0 | 0.00 | 1.45 | 0.00 | 93 | 1015.9 |
| 20260508054524 | 50 | 60 | 0.0 | 0.0 | 0.00 | 1.46 | 0.00 | 92 | 1016.0 |
| 20260508053031 | 51 | 60 | 0.0 | 0.0 | 0.00 | 1.50 | 0.00 | 91 | 1016.1 |
| 20260508051531 | 51 | 60 | 0.0 | 0.0 | 0.00 | 1.60 | 0.00 | 91 | 1016.0 |
| 20260508050016 | 52 | 60 | 0.0 | 0.0 | 0.00 | 1.65 | 0.00 | 91 | 1016.1 |
| 20260508044524 | 52 | 60 | 0.0 | 0.0 | 0.00 | 1.72 | 0.00 | 89 | 1016.0 |
| 20260508043026 | 53 | 60 | 0.0 | 0.0 | 0.00 | 1.83 | 0.00 | 89 | 1015.8 |
| 20260508041530 | 54 | 60 | 0.0 | 0.0 | 0.00 | 1.90 | 0.00 | 88 | 1015.7 |
| 20260508040014 | 54 | 60 | 0.0 | 0.0 | 0.00 | 1.90 | 0.00 | 87 | 1015.5 |
| 20260508034524 | 54 | 60 | 0.0 | 0.0 | 0.00 | 1.90 | 1.90 | 86 | 1015.8 |
| 20260508033006 | 55 | 60 | 0.0 | 0.0 | 0.00 | 1.90 | 1.90 | 86 | 1015.6 |
| 20260508031504 | 55 | 60 | 0.0 | 0.0 | 0.00 | 1.90 | 1.90 | 86 | 1015.6 |
| 20260508030008 | 56 | 60 | 0.0 | 0.0 | 0.00 | 1.90 | 1.90 | 84 | 1015.3 |
| 20260508024512 | 57 | 60 | 0.0 | 0.0 | 0.00 | 1.90 | 1.90 | 82 | 1015.3 |
| 20260508023021 | 58 | 60 | 0.0 | 0.0 | 0.00 | 1.90 | 1.90 | 79 | 1015.0 |